sensor_id;sensor_type;location;lat;lon;timestamp;P1;durP1;ratioP1;P2;durP2;ratioP2
4210;SDS011;2119;48.828;12.396;2023-12-07T00:02:12;22.00;;;13.50;;
4210;SDS011;2119;48.828;12.396;2023-12-07T00:07:13;21.83;;;13.30;;
4210;SDS011;2119;48.828;12.396;2023-12-07T00:12:13;22.43;;;13.57;;
4210;SDS011;2119;48.828;12.396;2023-12-07T00:17:13;21.40;;;12.60;;
4210;SDS011;2119;48.828;12.396;2023-12-07T00:22:14;21.80;;;14.20;;
4210;SDS011;2119;48.828;12.396;2023-12-07T00:27:14;22.15;;;13.15;;
4210;SDS011;2119;48.828;12.396;2023-12-07T00:32:14;20.37;;;12.70;;
4210;SDS011;2119;48.828;12.396;2023-12-07T00:37:15;21.63;;;12.88;;
4210;SDS011;2119;48.828;12.396;2023-12-07T00:42:15;20.10;;;13.07;;
4210;SDS011;2119;48.828;12.396;2023-12-07T00:47:15;24.33;;;14.27;;
4210;SDS011;2119;48.828;12.396;2023-12-07T00:52:15;30.23;;;14.07;;
4210;SDS011;2119;48.828;12.396;2023-12-07T00:57:15;26.70;;;14.80;;
4210;SDS011;2119;48.828;12.396;2023-12-07T01:02:15;24.35;;;14.80;;
4210;SDS011;2119;48.828;12.396;2023-12-07T01:07:16;25.38;;;13.90;;
4210;SDS011;2119;48.828;12.396;2023-12-07T01:12:16;23.05;;;13.27;;
4210;SDS011;2119;48.828;12.396;2023-12-07T01:17:16;20.75;;;13.43;;
4210;SDS011;2119;48.828;12.396;2023-12-07T01:22:16;21.10;;;13.57;;
4210;SDS011;2119;48.828;12.396;2023-12-07T01:27:16;23.10;;;13.97;;
4210;SDS011;2119;48.828;12.396;2023-12-07T01:32:18;25.17;;;12.97;;
4210;SDS011;2119;48.828;12.396;2023-12-07T01:37:18;24.37;;;13.83;;
4210;SDS011;2119;48.828;12.396;2023-12-07T01:42:18;24.00;;;14.05;;
4210;SDS011;2119;48.828;12.396;2023-12-07T01:47:18;25.00;;;14.70;;
4210;SDS011;2119;48.828;12.396;2023-12-07T01:52:19;27.03;;;14.43;;
4210;SDS011;2119;48.828;12.396;2023-12-07T01:57:22;23.87;;;14.07;;
4210;SDS011;2119;48.828;12.396;2023-12-07T02:02:22;24.30;;;14.80;;
4210;SDS011;2119;48.828;12.396;2023-12-07T02:07:23;28.07;;;14.73;;
4210;SDS011;2119;48.828;12.396;2023-12-07T02:12:23;25.25;;;14.75;;
4210;SDS011;2119;48.828;12.396;2023-12-07T02:17:28;25.60;;;13.00;;
4210;SDS011;2119;48.828;12.396;2023-12-07T02:22:39;25.40;;;14.93;;
4210;SDS011;2119;48.828;12.396;2023-12-07T02:27:40;26.63;;;16.77;;
4210;SDS011;2119;48.828;12.396;2023-12-07T02:32:41;30.27;;;18.57;;
4210;SDS011;2119;48.828;12.396;2023-12-07T02:37:45;25.33;;;16.07;;
4210;SDS011;2119;48.828;12.396;2023-12-07T02:42:47;25.60;;;13.70;;
4210;SDS011;2119;48.828;12.396;2023-12-07T02:47:47;27.07;;;14.37;;
4210;SDS011;2119;48.828;12.396;2023-12-07T02:52:47;28.38;;;15.52;;
4210;SDS011;2119;48.828;12.396;2023-12-07T02:57:48;24.85;;;13.30;;
4210;SDS011;2119;48.828;12.396;2023-12-07T03:02:48;23.95;;;13.82;;
4210;SDS011;2119;48.828;12.396;2023-12-07T03:07:50;26.90;;;15.70;;
4210;SDS011;2119;48.828;12.396;2023-12-07T03:12:50;25.45;;;15.18;;
4210;SDS011;2119;48.828;12.396;2023-12-07T03:17:50;26.13;;;14.63;;
4210;SDS011;2119;48.828;12.396;2023-12-07T03:22:52;25.83;;;15.80;;
4210;SDS011;2119;48.828;12.396;2023-12-07T03:27:52;28.00;;;15.23;;
4210;SDS011;2119;48.828;12.396;2023-12-07T03:32:52;25.17;;;14.50;;
4210;SDS011;2119;48.828;12.396;2023-12-07T03:37:52;27.73;;;14.80;;
4210;SDS011;2119;48.828;12.396;2023-12-07T03:42:53;28.05;;;14.02;;
4210;SDS011;2119;48.828;12.396;2023-12-07T03:47:53;24.83;;;14.07;;
4210;SDS011;2119;48.828;12.396;2023-12-07T03:52:53;27.27;;;14.80;;
4210;SDS011;2119;48.828;12.396;2023-12-07T03:57:53;28.83;;;15.05;;
4210;SDS011;2119;48.828;12.396;2023-12-07T04:02:53;25.00;;;13.93;;
4210;SDS011;2119;48.828;12.396;2023-12-07T04:07:54;22.88;;;14.23;;
4210;SDS011;2119;48.828;12.396;2023-12-07T04:12:54;30.98;;;15.88;;
4210;SDS011;2119;48.828;12.396;2023-12-07T04:17:54;28.83;;;15.80;;
4210;SDS011;2119;48.828;12.396;2023-12-07T04:22:54;25.58;;;15.10;;
4210;SDS011;2119;48.828;12.396;2023-12-07T04:27:55;36.53;;;18.50;;
4210;SDS011;2119;48.828;12.396;2023-12-07T04:32:55;31.33;;;17.27;;
4210;SDS011;2119;48.828;12.396;2023-12-07T04:37:55;30.48;;;17.98;;
4210;SDS011;2119;48.828;12.396;2023-12-07T04:42:55;32.05;;;17.92;;
4210;SDS011;2119;48.828;12.396;2023-12-07T04:47:55;29.10;;;16.25;;
4210;SDS011;2119;48.828;12.396;2023-12-07T04:52:57;38.90;;;21.23;;
4210;SDS011;2119;48.828;12.396;2023-12-07T04:57:57;28.02;;;15.82;;
4210;SDS011;2119;48.828;12.396;2023-12-07T05:02:57;29.85;;;15.73;;
4210;SDS011;2119;48.828;12.396;2023-12-07T05:07:58;28.65;;;16.13;;
4210;SDS011;2119;48.828;12.396;2023-12-07T05:12:58;29.45;;;15.43;;
4210;SDS011;2119;48.828;12.396;2023-12-07T05:17:58;27.95;;;15.95;;
4210;SDS011;2119;48.828;12.396;2023-12-07T05:22:58;29.00;;;17.42;;
4210;SDS011;2119;48.828;12.396;2023-12-07T05:27:59;29.25;;;15.57;;
4210;SDS011;2119;48.828;12.396;2023-12-07T05:32:59;27.50;;;16.85;;
4210;SDS011;2119;48.828;12.396;2023-12-07T05:37:59;32.78;;;16.63;;
4210;SDS011;2119;48.828;12.396;2023-12-07T05:42:59;32.50;;;18.67;;
4210;SDS011;2119;48.828;12.396;2023-12-07T05:47:59;27.30;;;17.47;;
4210;SDS011;2119;48.828;12.396;2023-12-07T05:53:00;30.17;;;16.50;;
4210;SDS011;2119;48.828;12.396;2023-12-07T05:58:00;32.60;;;18.43;;
4210;SDS011;2119;48.828;12.396;2023-12-07T06:03:00;29.50;;;18.13;;
4210;SDS011;2119;48.828;12.396;2023-12-07T06:08:00;36.35;;;19.15;;
4210;SDS011;2119;48.828;12.396;2023-12-07T06:13:01;33.15;;;19.17;;
4210;SDS011;2119;48.828;12.396;2023-12-07T06:18:01;37.13;;;19.95;;
4210;SDS011;2119;48.828;12.396;2023-12-07T06:23:01;37.42;;;21.27;;
4210;SDS011;2119;48.828;12.396;2023-12-07T06:28:02;47.17;;;25.53;;
4210;SDS011;2119;48.828;12.396;2023-12-07T06:33:02;33.10;;;18.38;;
4210;SDS011;2119;48.828;12.396;2023-12-07T06:38:02;33.03;;;18.67;;
4210;SDS011;2119;48.828;12.396;2023-12-07T06:43:03;36.10;;;18.87;;
4210;SDS011;2119;48.828;12.396;2023-12-07T06:48:03;41.27;;;21.77;;
4210;SDS011;2119;48.828;12.396;2023-12-07T06:53:03;44.40;;;22.07;;
4210;SDS011;2119;48.828;12.396;2023-12-07T06:58:03;42.77;;;22.53;;
4210;SDS011;2119;48.828;12.396;2023-12-07T07:03:03;36.90;;;19.70;;
4210;SDS011;2119;48.828;12.396;2023-12-07T07:08:04;34.67;;;20.42;;
4210;SDS011;2119;48.828;12.396;2023-12-07T07:13:04;35.63;;;20.07;;
4210;SDS011;2119;48.828;12.396;2023-12-07T07:18:04;37.75;;;20.48;;
4210;SDS011;2119;48.828;12.396;2023-12-07T07:23:05;38.47;;;22.20;;
4210;SDS011;2119;48.828;12.396;2023-12-07T07:28:05;40.00;;;23.17;;
4210;SDS011;2119;48.828;12.396;2023-12-07T07:33:06;46.20;;;24.48;;
4210;SDS011;2119;48.828;12.396;2023-12-07T07:38:06;53.40;;;28.57;;
4210;SDS011;2119;48.828;12.396;2023-12-07T07:43:06;84.40;;;41.13;;
4210;SDS011;2119;48.828;12.396;2023-12-07T07:48:06;50.47;;;27.07;;
4210;SDS011;2119;48.828;12.396;2023-12-07T07:53:06;49.03;;;27.80;;
4210;SDS011;2119;48.828;12.396;2023-12-07T07:58:07;55.28;;;28.42;;
4210;SDS011;2119;48.828;12.396;2023-12-07T08:03:07;49.80;;;28.43;;
4210;SDS011;2119;48.828;12.396;2023-12-07T08:08:08;40.50;;;23.70;;
4210;SDS011;2119;48.828;12.396;2023-12-07T08:13:09;41.43;;;23.70;;
4210;SDS011;2119;48.828;12.396;2023-12-07T08:18:09;52.73;;;25.63;;
4210;SDS011;2119;48.828;12.396;2023-12-07T08:23:09;51.08;;;27.40;;
4210;SDS011;2119;48.828;12.396;2023-12-07T08:28:10;46.17;;;25.80;;
4210;SDS011;2119;48.828;12.396;2023-12-07T08:33:10;39.13;;;22.77;;
4210;SDS011;2119;48.828;12.396;2023-12-07T08:38:11;41.40;;;24.30;;
4210;SDS011;2119;48.828;12.396;2023-12-07T08:43:11;45.08;;;23.30;;
4210;SDS011;2119;48.828;12.396;2023-12-07T08:48:11;37.38;;;22.42;;
4210;SDS011;2119;48.828;12.396;2023-12-07T08:53:11;39.80;;;21.88;;
4210;SDS011;2119;48.828;12.396;2023-12-07T08:58:12;40.90;;;19.60;;
4210;SDS011;2119;48.828;12.396;2023-12-07T09:03:12;38.28;;;20.38;;
4210;SDS011;2119;48.828;12.396;2023-12-07T09:08:13;38.43;;;20.87;;
4210;SDS011;2119;48.828;12.396;2023-12-07T09:13:13;34.05;;;20.17;;
4210;SDS011;2119;48.828;12.396;2023-12-07T09:18:13;41.30;;;25.03;;
4210;SDS011;2119;48.828;12.396;2023-12-07T09:23:13;38.30;;;22.25;;
4210;SDS011;2119;48.828;12.396;2023-12-07T09:28:15;53.63;;;22.80;;
4210;SDS011;2119;48.828;12.396;2023-12-07T09:33:15;37.40;;;20.98;;
4210;SDS011;2119;48.828;12.396;2023-12-07T09:38:15;44.23;;;24.10;;
4210;SDS011;2119;48.828;12.396;2023-12-07T09:43:16;51.43;;;28.40;;
4210;SDS011;2119;48.828;12.396;2023-12-07T09:48:17;42.43;;;25.33;;
4210;SDS011;2119;48.828;12.396;2023-12-07T09:53:18;41.00;;;22.20;;
4210;SDS011;2119;48.828;12.396;2023-12-07T09:58:18;39.10;;;22.63;;
4210;SDS011;2119;48.828;12.396;2023-12-07T10:03:22;34.00;;;18.70;;
4210;SDS011;2119;48.828;12.396;2023-12-07T10:08:26;32.60;;;18.90;;
4210;SDS011;2119;48.828;12.396;2023-12-07T10:13:28;35.77;;;18.53;;
4210;SDS011;2119;48.828;12.396;2023-12-07T10:18:28;30.73;;;17.77;;
4210;SDS011;2119;48.828;12.396;2023-12-07T10:23:29;34.17;;;18.20;;
4210;SDS011;2119;48.828;12.396;2023-12-07T10:28:33;27.57;;;17.53;;
4210;SDS011;2119;48.828;12.396;2023-12-07T10:33:33;28.57;;;16.97;;
4210;SDS011;2119;48.828;12.396;2023-12-07T10:38:33;30.10;;;17.90;;
4210;SDS011;2119;48.828;12.396;2023-12-07T10:43:37;29.95;;;18.15;;
4210;SDS011;2119;48.828;12.396;2023-12-07T10:48:38;27.37;;;16.10;;
4210;SDS011;2119;48.828;12.396;2023-12-07T10:53:44;27.33;;;15.50;;
4210;SDS011;2119;48.828;12.396;2023-12-07T10:58:44;29.53;;;16.70;;
4210;SDS011;2119;48.828;12.396;2023-12-07T11:03:45;30.60;;;18.50;;
4210;SDS011;2119;48.828;12.396;2023-12-07T11:08:46;34.63;;;20.30;;
4210;SDS011;2119;48.828;12.396;2023-12-07T11:13:49;34.20;;;19.30;;
4210;SDS011;2119;48.828;12.396;2023-12-07T11:18:53;35.57;;;19.27;;
4210;SDS011;2119;48.828;12.396;2023-12-07T11:23:53;33.13;;;19.33;;
4210;SDS011;2119;48.828;12.396;2023-12-07T11:28:54;34.53;;;20.50;;
4210;SDS011;2119;48.828;12.396;2023-12-07T11:33:55;39.07;;;22.93;;
4210;SDS011;2119;48.828;12.396;2023-12-07T11:44:03;40.30;;;23.03;;
4210;SDS011;2119;48.828;12.396;2023-12-07T11:49:04;40.33;;;23.60;;
4210;SDS011;2119;48.828;12.396;2023-12-07T11:54:08;43.70;;;23.80;;
4210;SDS011;2119;48.828;12.396;2023-12-07T11:59:11;40.90;;;21.93;;
4210;SDS011;2119;48.828;12.396;2023-12-07T12:04:11;39.30;;;22.00;;
4210;SDS011;2119;48.828;12.396;2023-12-07T12:09:14;41.57;;;21.80;;
4210;SDS011;2119;48.828;12.396;2023-12-07T12:14:17;36.57;;;21.23;;
4210;SDS011;2119;48.828;12.396;2023-12-07T12:19:18;40.07;;;22.20;;
4210;SDS011;2119;48.828;12.396;2023-12-07T12:24:18;37.40;;;21.15;;
4210;SDS011;2119;48.828;12.396;2023-12-07T12:29:18;39.43;;;21.27;;
4210;SDS011;2119;48.828;12.396;2023-12-07T12:34:20;36.43;;;20.50;;
4210;SDS011;2119;48.828;12.396;2023-12-07T12:39:26;35.90;;;20.40;;
4210;SDS011;2119;48.828;12.396;2023-12-07T12:44:27;31.67;;;19.20;;
4210;SDS011;2119;48.828;12.396;2023-12-07T12:49:37;36.57;;;20.60;;
4210;SDS011;2119;48.828;12.396;2023-12-07T12:54:37;36.47;;;20.93;;
4210;SDS011;2119;48.828;12.396;2023-12-07T12:59:37;47.85;;;26.05;;
4210;SDS011;2119;48.828;12.396;2023-12-07T13:04:38;38.70;;;20.87;;
4210;SDS011;2119;48.828;12.396;2023-12-07T13:09:38;39.22;;;21.25;;
4210;SDS011;2119;48.828;12.396;2023-12-07T13:14:38;33.60;;;20.73;;
4210;SDS011;2119;48.828;12.396;2023-12-07T13:19:39;33.00;;;20.03;;
4210;SDS011;2119;48.828;12.396;2023-12-07T13:24:40;42.77;;;23.00;;
4210;SDS011;2119;48.828;12.396;2023-12-07T13:29:40;37.88;;;22.25;;
4210;SDS011;2119;48.828;12.396;2023-12-07T13:34:40;35.83;;;21.77;;
4210;SDS011;2119;48.828;12.396;2023-12-07T13:39:40;35.75;;;21.00;;
4210;SDS011;2119;48.828;12.396;2023-12-07T13:44:42;39.10;;;21.03;;
4210;SDS011;2119;48.828;12.396;2023-12-07T13:49:43;39.53;;;21.97;;
4210;SDS011;2119;48.828;12.396;2023-12-07T13:54:43;42.20;;;23.73;;
4210;SDS011;2119;48.828;12.396;2023-12-07T13:59:43;41.60;;;23.43;;
4210;SDS011;2119;48.828;12.396;2023-12-07T14:04:44;37.43;;;21.10;;
4210;SDS011;2119;48.828;12.396;2023-12-07T14:09:45;41.43;;;23.00;;
4210;SDS011;2119;48.828;12.396;2023-12-07T14:14:46;39.30;;;24.13;;
4210;SDS011;2119;48.828;12.396;2023-12-07T14:19:47;44.93;;;25.47;;
4210;SDS011;2119;48.828;12.396;2023-12-07T14:24:48;40.77;;;25.47;;
4210;SDS011;2119;48.828;12.396;2023-12-07T14:29:48;43.70;;;25.58;;
4210;SDS011;2119;48.828;12.396;2023-12-07T14:34:48;42.37;;;23.00;;
4210;SDS011;2119;48.828;12.396;2023-12-07T14:39:49;53.38;;;27.52;;
4210;SDS011;2119;48.828;12.396;2023-12-07T14:44:49;48.92;;;25.63;;
4210;SDS011;2119;48.828;12.396;2023-12-07T14:49:49;50.42;;;25.17;;
4210;SDS011;2119;48.828;12.396;2023-12-07T14:54:49;41.40;;;21.90;;
4210;SDS011;2119;48.828;12.396;2023-12-07T14:59:50;38.43;;;21.67;;
4210;SDS011;2119;48.828;12.396;2023-12-07T15:04:50;33.60;;;19.87;;
4210;SDS011;2119;48.828;12.396;2023-12-07T15:09:58;37.83;;;19.93;;
4210;SDS011;2119;48.828;12.396;2023-12-07T15:14:58;34.23;;;21.33;;
4210;SDS011;2119;48.828;12.396;2023-12-07T15:19:58;41.40;;;23.30;;
4210;SDS011;2119;48.828;12.396;2023-12-07T15:24:58;44.50;;;24.42;;
4210;SDS011;2119;48.828;12.396;2023-12-07T15:29:58;32.03;;;18.60;;
4210;SDS011;2119;48.828;12.396;2023-12-07T15:34:59;32.93;;;18.73;;
4210;SDS011;2119;48.828;12.396;2023-12-07T15:39:59;33.20;;;19.93;;
4210;SDS011;2119;48.828;12.396;2023-12-07T15:44:59;36.40;;;19.98;;
4210;SDS011;2119;48.828;12.396;2023-12-07T15:49:59;40.67;;;22.83;;
4210;SDS011;2119;48.828;12.396;2023-12-07T15:55:00;39.43;;;19.47;;
4210;SDS011;2119;48.828;12.396;2023-12-07T16:00:00;36.67;;;21.30;;
4210;SDS011;2119;48.828;12.396;2023-12-07T16:05:00;28.77;;;16.58;;
4210;SDS011;2119;48.828;12.396;2023-12-07T16:10:00;29.37;;;17.40;;
4210;SDS011;2119;48.828;12.396;2023-12-07T16:15:01;33.40;;;18.87;;
4210;SDS011;2119;48.828;12.396;2023-12-07T16:20:01;30.93;;;19.10;;
4210;SDS011;2119;48.828;12.396;2023-12-07T16:25:01;35.97;;;19.00;;
4210;SDS011;2119;48.828;12.396;2023-12-07T16:30:03;35.77;;;21.00;;
4210;SDS011;2119;48.828;12.396;2023-12-07T16:35:03;32.87;;;17.37;;
4210;SDS011;2119;48.828;12.396;2023-12-07T16:40:04;39.03;;;19.63;;
4210;SDS011;2119;48.828;12.396;2023-12-07T16:45:04;33.03;;;18.80;;
4210;SDS011;2119;48.828;12.396;2023-12-07T16:50:05;30.93;;;18.40;;
4210;SDS011;2119;48.828;12.396;2023-12-07T16:55:05;26.93;;;14.27;;
4210;SDS011;2119;48.828;12.396;2023-12-07T17:00:06;19.83;;;11.90;;
4210;SDS011;2119;48.828;12.396;2023-12-07T17:05:07;31.40;;;16.50;;
4210;SDS011;2119;48.828;12.396;2023-12-07T17:10:07;47.20;;;25.77;;
4210;SDS011;2119;48.828;12.396;2023-12-07T17:15:08;16.13;;;10.50;;
4210;SDS011;2119;48.828;12.396;2023-12-07T17:20:08;19.00;;;11.70;;
4210;SDS011;2119;48.828;12.396;2023-12-07T17:25:11;21.50;;;13.20;;
4210;SDS011;2119;48.828;12.396;2023-12-07T17:30:14;109.27;;;31.70;;
4210;SDS011;2119;48.828;12.396;2023-12-07T17:35:14;78.22;;;32.35;;
4210;SDS011;2119;48.828;12.396;2023-12-07T17:40:17;76.57;;;24.70;;
4210;SDS011;2119;48.828;12.396;2023-12-07T17:45:18;60.33;;;25.15;;
4210;SDS011;2119;48.828;12.396;2023-12-07T17:50:21;357.40;;;36.37;;
4210;SDS011;2119;48.828;12.396;2023-12-07T17:55:21;169.98;;;27.20;;
4210;SDS011;2119;48.828;12.396;2023-12-07T18:00:21;58.13;;;23.30;;
4210;SDS011;2119;48.828;12.396;2023-12-07T18:05:21;334.35;;;34.63;;
4210;SDS011;2119;48.828;12.396;2023-12-07T18:10:21;210.77;;;26.17;;
4210;SDS011;2119;48.828;12.396;2023-12-07T18:15:23;108.67;;;17.90;;
4210;SDS011;2119;48.828;12.396;2023-12-07T18:20:23;76.45;;;16.35;;
4210;SDS011;2119;48.828;12.396;2023-12-07T18:25:23;32.70;;;16.75;;
4210;SDS011;2119;48.828;12.396;2023-12-07T18:30:24;120.22;;;21.58;;
4210;SDS011;2119;48.828;12.396;2023-12-07T18:35:24;49.97;;;19.93;;
4210;SDS011;2119;48.828;12.396;2023-12-07T18:40:25;71.23;;;21.67;;
4210;SDS011;2119;48.828;12.396;2023-12-07T18:45:25;66.13;;;27.50;;
4210;SDS011;2119;48.828;12.396;2023-12-07T18:50:25;70.72;;;31.85;;
4210;SDS011;2119;48.828;12.396;2023-12-07T18:55:26;84.35;;;33.53;;
4210;SDS011;2119;48.828;12.396;2023-12-07T19:00:26;104.15;;;30.98;;
4210;SDS011;2119;48.828;12.396;2023-12-07T19:05:26;62.13;;;26.33;;
4210;SDS011;2119;48.828;12.396;2023-12-07T19:10:26;63.83;;;28.13;;
4210;SDS011;2119;48.828;12.396;2023-12-07T19:15:26;56.27;;;23.60;;
4210;SDS011;2119;48.828;12.396;2023-12-07T19:20:27;48.00;;;22.00;;
4210;SDS011;2119;48.828;12.396;2023-12-07T19:25:27;49.33;;;21.52;;
4210;SDS011;2119;48.828;12.396;2023-12-07T19:30:27;56.87;;;24.60;;
4210;SDS011;2119;48.828;12.396;2023-12-07T19:35:28;56.10;;;25.40;;
4210;SDS011;2119;48.828;12.396;2023-12-07T19:40:28;81.57;;;23.57;;
4210;SDS011;2119;48.828;12.396;2023-12-07T19:45:28;50.83;;;21.90;;
4210;SDS011;2119;48.828;12.396;2023-12-07T19:50:30;153.57;;;46.53;;
4210;SDS011;2119;48.828;12.396;2023-12-07T19:55:31;48.60;;;21.10;;
4210;SDS011;2119;48.828;12.396;2023-12-07T20:00:31;50.42;;;22.75;;
4210;SDS011;2119;48.828;12.396;2023-12-07T20:05:32;48.07;;;23.30;;
4210;SDS011;2119;48.828;12.396;2023-12-07T20:10:32;56.17;;;24.38;;
4210;SDS011;2119;48.828;12.396;2023-12-07T20:15:33;56.30;;;25.60;;
4210;SDS011;2119;48.828;12.396;2023-12-07T20:20:33;41.47;;;17.85;;
4210;SDS011;2119;48.828;12.396;2023-12-07T20:25:34;38.00;;;18.43;;
4210;SDS011;2119;48.828;12.396;2023-12-07T20:30:34;32.93;;;16.47;;
4210;SDS011;2119;48.828;12.396;2023-12-07T20:35:34;40.60;;;19.20;;
4210;SDS011;2119;48.828;12.396;2023-12-07T20:40:34;38.57;;;18.50;;
4210;SDS011;2119;48.828;12.396;2023-12-07T20:45:34;37.20;;;18.17;;
4210;SDS011;2119;48.828;12.396;2023-12-07T20:50:35;43.70;;;20.40;;
4210;SDS011;2119;48.828;12.396;2023-12-07T20:55:35;41.87;;;19.27;;
4210;SDS011;2119;48.828;12.396;2023-12-07T21:00:35;43.72;;;20.00;;
4210;SDS011;2119;48.828;12.396;2023-12-07T21:05:35;34.20;;;17.65;;
4210;SDS011;2119;48.828;12.396;2023-12-07T21:10:35;40.70;;;17.52;;
4210;SDS011;2119;48.828;12.396;2023-12-07T21:15:36;32.47;;;16.43;;
4210;SDS011;2119;48.828;12.396;2023-12-07T21:20:37;34.40;;;15.70;;
4210;SDS011;2119;48.828;12.396;2023-12-07T21:25:38;44.55;;;22.35;;
4210;SDS011;2119;48.828;12.396;2023-12-07T21:30:38;52.00;;;23.40;;
4210;SDS011;2119;48.828;12.396;2023-12-07T21:35:40;46.83;;;19.40;;
4210;SDS011;2119;48.828;12.396;2023-12-07T21:40:40;32.45;;;15.73;;
4210;SDS011;2119;48.828;12.396;2023-12-07T21:45:40;37.33;;;15.52;;
4210;SDS011;2119;48.828;12.396;2023-12-07T21:50:40;32.77;;;16.10;;
4210;SDS011;2119;48.828;12.396;2023-12-07T21:55:41;36.23;;;18.40;;
4210;SDS011;2119;48.828;12.396;2023-12-07T22:00:41;57.95;;;28.45;;
4210;SDS011;2119;48.828;12.396;2023-12-07T22:05:41;57.50;;;23.43;;
4210;SDS011;2119;48.828;12.396;2023-12-07T22:10:41;43.58;;;20.23;;
4210;SDS011;2119;48.828;12.396;2023-12-07T22:15:41;25.05;;;12.10;;
4210;SDS011;2119;48.828;12.396;2023-12-07T22:20:42;21.48;;;12.35;;
4210;SDS011;2119;48.828;12.396;2023-12-07T22:25:42;24.65;;;12.13;;
4210;SDS011;2119;48.828;12.396;2023-12-07T22:30:42;22.17;;;12.13;;
4210;SDS011;2119;48.828;12.396;2023-12-07T22:35:42;27.50;;;15.07;;
4210;SDS011;2119;48.828;12.396;2023-12-07T22:40:43;32.72;;;16.40;;
4210;SDS011;2119;48.828;12.396;2023-12-07T22:45:43;26.53;;;14.20;;
4210;SDS011;2119;48.828;12.396;2023-12-07T22:50:43;28.70;;;14.68;;
4210;SDS011;2119;48.828;12.396;2023-12-07T22:55:44;43.67;;;21.40;;
4210;SDS011;2119;48.828;12.396;2023-12-07T23:00:44;31.20;;;15.30;;
4210;SDS011;2119;48.828;12.396;2023-12-07T23:05:44;27.52;;;13.48;;
4210;SDS011;2119;48.828;12.396;2023-12-07T23:10:44;32.15;;;14.80;;
4210;SDS011;2119;48.828;12.396;2023-12-07T23:15:44;40.03;;;19.77;;
4210;SDS011;2119;48.828;12.396;2023-12-07T23:20:44;47.97;;;20.80;;
4210;SDS011;2119;48.828;12.396;2023-12-07T23:25:45;28.35;;;14.07;;
4210;SDS011;2119;48.828;12.396;2023-12-07T23:30:45;22.20;;;11.52;;
4210;SDS011;2119;48.828;12.396;2023-12-07T23:35:45;24.23;;;12.00;;
4210;SDS011;2119;48.828;12.396;2023-12-07T23:40:46;24.90;;;12.83;;
4210;SDS011;2119;48.828;12.396;2023-12-07T23:45:46;24.75;;;10.95;;
4210;SDS011;2119;48.828;12.396;2023-12-07T23:50:46;22.25;;;11.90;;
4210;SDS011;2119;48.828;12.396;2023-12-07T23:55:46;20.13;;;10.40;;
